Time;durP1;ratioP1;P1;durP2;ratioP2;P2;SDS_P1;SDS_P2;PMS_P1;PMS_P2;Temp;Humidity;BMP_temperature;BMP_pressure;BME280_temperature;BME280_humidity;BME280_pressure;Samples;Min_cycle;Max_cycle;Signal;HPM_P1;HPM_P2
2023/07/28 00:02:05;;;;;;;2.47;0.60;;;16.70;99.90;;;;;;5125022;27;20560;-81
2023/07/28 00:04:32;;;;;;;1.20;0.90;;;16.60;99.90;;;;;;5124737;27;20486;-82
2023/07/28 00:07:02;;;;;;;0.70;0.60;;;16.70;99.90;;;;;;5129970;27;20472;-82
2023/07/28 00:09:29;;;;;;;1.47;0.70;;;16.70;99.90;;;;;;5123983;27;20468;-82
2023/07/28 00:11:57;;;;;;;0.90;0.70;;;16.80;99.90;;;;;;5129065;27;21010;-82
2023/07/28 00:14:25;;;;;;;2.23;0.60;;;16.80;99.90;;;;;;5127942;27;20577;-84
2023/07/28 00:16:52;;;;;;;1.67;1.00;;;16.90;99.90;;;;;;5128355;27;20457;-82
2023/07/28 00:19:20;;;;;;;0.93;0.50;;;17.00;99.90;;;;;;5129496;27;20506;-82
2023/07/28 00:21:48;;;;;;;2.50;0.90;;;17.00;99.90;;;;;;5129134;27;20440;-82
2023/07/28 00:24:15;;;;;;;1.27;0.90;;;17.00;99.90;;;;;;5129046;27;20544;-84
2023/07/28 00:26:42;;;;;;;1.83;1.00;;;17.00;99.90;;;;;;5127609;27;20457;-82
2023/07/28 00:29:09;;;;;;;1.57;1.47;;;17.00;99.90;;;;;;5129424;27;20477;-82
2023/07/28 00:31:35;;;;;;;0.60;0.50;;;17.00;99.90;;;;;;5129602;27;20538;-82
2023/07/28 00:34:03;;;;;;;0.70;0.67;;;17.00;99.90;;;;;;5127912;27;20495;-83
2023/07/28 00:36:32;;;;;;;1.53;0.80;;;17.00;99.90;;;;;;5128188;27;21127;-84
2023/07/28 00:38:59;;;;;;;1.83;0.80;;;17.00;99.90;;;;;;5126340;27;21018;-84
2023/07/28 00:41:26;;;;;;;1.73;0.90;;;16.90;99.90;;;;;;5127455;27;20630;-83
2023/07/28 00:43:53;;;;;;;0.70;0.63;;;16.90;99.90;;;;;;5126598;27;20534;-82
2023/07/28 00:46:20;;;;;;;0.77;0.77;;;16.80;99.90;;;;;;5129232;27;20511;-81
2023/07/28 00:48:47;;;;;;;1.50;0.67;;;16.80;99.90;;;;;;5127506;27;20456;-82
2023/07/28 00:51:14;;;;;;;1.53;0.77;;;16.60;99.90;;;;;;5126773;27;20948;-82
2023/07/28 00:53:43;;;;;;;1.83;0.80;;;16.50;99.90;;;;;;5118990;27;20496;-84
2023/07/28 00:56:11;;;;;;;1.30;1.00;;;16.50;99.90;;;;;;5128112;27;20533;-82
2023/07/28 00:58:38;;;;;;;1.97;1.10;;;16.40;99.90;;;;;;5124746;27;20498;-84
2023/07/28 01:01:05;;;;;;;1.03;0.77;;;16.40;99.90;;;;;;5127010;27;21000;-83
2023/07/28 01:03:32;;;;;;;0.90;0.80;;;16.50;99.90;;;;;;5132886;27;20506;-83
2023/07/28 01:06:08;;;;;;;5.10;0.70;;;16.40;99.90;;;;;;5149495;27;20459;-84
2023/07/28 01:08:45;;;;;;;1.20;0.73;;;16.30;99.90;;;;;;5143077;27;20940;-82
2023/07/28 01:11:13;;;;;;;1.37;0.97;;;16.20;99.90;;;;;;5137466;27;20459;-82
2023/07/28 01:13:40;;;;;;;1.03;0.93;;;16.10;99.90;;;;;;5132722;27;20570;-83
2023/07/28 01:16:09;;;;;;;1.33;0.80;;;16.00;99.90;;;;;;5111765;28;20474;-82
2023/07/28 01:18:36;;;;;;;0.97;0.70;;;16.00;99.90;;;;;;5120665;27;20491;-82
2023/07/28 01:21:06;;;;;;;1.23;1.13;;;16.00;99.90;;;;;;5125928;27;20510;-82
2023/07/28 01:23:42;;;;;;;1.93;1.10;;;16.10;99.90;;;;;;5122743;27;21043;-82
2023/07/28 01:26:11;;;;;;;2.67;0.97;;;16.10;99.90;;;;;;5122775;27;20504;-81
2023/07/28 01:28:41;;;;;;;1.43;1.10;;;16.20;99.90;;;;;;5126559;27;20851;-84
2023/07/28 01:31:09;;;;;;;2.00;1.03;;;16.10;99.90;;;;;;5123203;27;20442;-81
2023/07/28 01:33:36;;;;;;;1.47;0.70;;;16.00;99.90;;;;;;5124000;27;20543;-82
2023/07/28 01:36:03;;;;;;;2.07;1.90;;;16.00;99.90;;;;;;5127279;27;20443;-82
2023/07/28 01:38:31;;;;;;;2.30;1.10;;;16.00;99.90;;;;;;5128090;27;20453;-82
2023/07/28 01:40:57;;;;;;;2.90;1.10;;;16.00;99.90;;;;;;5125652;27;20462;-82
2023/07/28 01:43:24;;;;;;;1.30;0.70;;;15.80;99.90;;;;;;5125214;27;20468;-83
2023/07/28 01:45:53;;;;;;;1.40;0.93;;;15.80;99.90;;;;;;5127085;27;20449;-82
2023/07/28 01:48:20;;;;;;;2.80;0.93;;;15.70;99.90;;;;;;5124812;27;20454;-81
2023/07/28 01:50:47;;;;;;;2.07;1.23;;;15.70;99.90;;;;;;5124328;27;20461;-83
2023/07/28 01:53:13;;;;;;;0.97;0.80;;;15.50;99.90;;;;;;5124833;27;20479;-82
2023/07/28 01:55:40;;;;;;;3.73;1.20;;;15.40;99.90;;;;;;5126929;27;20599;-82
2023/07/28 01:58:07;;;;;;;1.37;0.97;;;15.20;99.90;;;;;;5126471;27;21065;-82
2023/07/28 02:00:34;;;;;;;1.27;0.97;;;15.10;99.90;;;;;;5125482;27;20462;-84
2023/07/28 02:03:03;;;;;;;2.20;1.63;;;15.00;99.90;;;;;;5127248;27;20469;-83
2023/07/28 02:05:30;;;;;;;1.00;0.90;;;14.90;99.90;;;;;;5123841;27;20552;-82
2023/07/28 02:07:57;;;;;;;1.17;1.00;;;14.90;99.90;;;;;;5122999;27;20974;-81
2023/07/28 02:10:25;;;;;;;1.83;1.20;;;14.90;99.90;;;;;;5127412;27;20439;-82
2023/07/28 02:12:52;;;;;;;2.27;1.00;;;15.00;99.90;;;;;;5125790;27;20477;-81
2023/07/28 02:15:19;;;;;;;1.80;0.90;;;15.00;99.90;;;;;;5124338;27;20950;-82
2023/07/28 02:17:46;;;;;;;1.10;1.00;;;14.90;99.90;;;;;;5120875;27;20480;-83
2023/07/28 02:20:15;;;;;;;2.30;1.00;;;14.90;99.90;;;;;;5127360;27;21151;-83
2023/07/28 02:22:43;;;;;;;5.53;2.10;;;14.90;99.90;;;;;;5124543;27;20458;-83
2023/07/28 02:25:10;;;;;;;1.10;1.00;;;14.80;99.90;;;;;;5129923;27;20472;-83
2023/07/28 02:27:37;;;;;;;1.23;0.97;;;14.80;99.90;;;;;;5128875;27;20453;-83
2023/07/28 02:30:05;;;;;;;1.90;1.10;;;14.80;99.90;;;;;;5130345;28;20458;-85
2023/07/28 02:32:32;;;;;;;1.53;0.97;;;14.80;99.90;;;;;;5148244;27;20470;-84
2023/07/28 02:34:59;;;;;;;1.50;1.00;;;14.90;99.90;;;;;;5150516;27;20477;-81
2023/07/28 02:37:28;;;;;;;1.70;0.80;;;15.00;99.90;;;;;;5143334;27;20445;-82
2023/07/28 02:39:55;;;;;;;1.10;0.80;;;15.00;99.90;;;;;;5131799;27;20452;-83
2023/07/28 02:42:23;;;;;;;1.00;0.80;;;15.00;99.90;;;;;;5126745;28;20493;-82
2023/07/28 02:44:50;;;;;;;2.00;1.03;;;15.00;99.90;;;;;;5128191;28;20454;-82
2023/07/28 02:47:17;;;;;;;1.67;1.20;;;15.00;99.90;;;;;;5122703;27;21245;-82
2023/07/28 02:49:44;;;;;;;3.20;0.93;;;14.90;99.90;;;;;;5123133;28;20478;-82
2023/07/28 02:52:11;;;;;;;1.57;1.07;;;14.80;99.90;;;;;;5126754;27;20490;-82
2023/07/28 02:54:39;;;;;;;1.10;1.00;;;14.80;99.90;;;;;;5120069;28;21070;-83
2023/07/28 02:57:07;;;;;;;1.40;1.30;;;14.80;99.90;;;;;;5126121;28;20608;-82
2023/07/28 02:59:34;;;;;;;1.43;1.30;;;14.70;99.90;;;;;;5127397;27;20825;-83
2023/07/28 03:02:01;;;;;;;2.17;1.00;;;14.60;99.90;;;;;;5122824;27;20512;-83
2023/07/28 03:04:27;;;;;;;1.03;0.70;;;14.60;99.90;;;;;;5124811;27;20530;-83
2023/07/28 03:06:54;;;;;;;1.57;0.97;;;14.60;99.90;;;;;;5127020;28;20531;-81
2023/07/28 03:09:21;;;;;;;1.73;0.87;;;14.60;99.90;;;;;;5127116;27;20534;-83
2023/07/28 03:11:50;;;;;;;1.10;1.00;;;14.50;99.90;;;;;;5121858;28;21244;-82
2023/07/28 03:14:17;;;;;;;1.40;0.90;;;14.50;99.90;;;;;;5127530;28;20517;-82
2023/07/28 03:16:44;;;;;;;1.40;1.20;;;14.50;99.90;;;;;;5124784;28;20911;-82
2023/07/28 03:19:11;;;;;;;1.13;0.70;;;14.40;99.90;;;;;;5130530;27;20503;-82
2023/07/28 03:21:38;;;;;;;1.43;0.97;;;14.30;99.90;;;;;;5130537;27;20844;-82
2023/07/28 03:24:05;;;;;;;0.90;0.80;;;14.30;99.90;;;;;;5131095;27;20442;-82
2023/07/28 03:26:32;;;;;;;1.40;1.00;;;14.30;99.90;;;;;;5125316;27;20454;-83
2023/07/28 03:29:00;;;;;;;0.90;0.80;;;14.20;99.90;;;;;;5131415;27;20498;-82
2023/07/28 03:31:28;;;;;;;1.23;1.10;;;14.30;99.90;;;;;;5128814;27;20492;-82
2023/07/28 03:33:58;;;;;;;1.40;0.90;;;14.20;99.90;;;;;;5127771;27;20470;-85
2023/07/28 03:36:26;;;;;;;1.70;1.37;;;14.20;99.90;;;;;;5126393;27;20519;-85
2023/07/28 03:38:53;;;;;;;1.30;0.93;;;14.30;99.90;;;;;;5127681;27;20476;-83
2023/07/28 03:41:21;;;;;;;1.40;1.07;;;14.30;99.90;;;;;;5124124;27;20453;-85
2023/07/28 03:43:48;;;;;;;3.80;0.80;;;14.40;99.90;;;;;;5124986;27;20458;-82
2023/07/28 03:46:16;;;;;;;1.80;0.80;;;14.30;99.90;;;;;;5128359;27;20882;-85
2023/07/28 03:48:43;;;;;;;2.30;1.07;;;14.40;99.90;;;;;;5124912;27;20458;-80
2023/07/28 03:51:10;;;;;;;3.10;1.13;;;14.30;99.90;;;;;;5124257;27;20498;-79
2023/07/28 03:53:37;;;;;;;1.10;0.70;;;14.50;99.90;;;;;;5122194;27;20457;-82
2023/07/28 03:56:04;;;;;;;1.87;1.70;;;14.50;99.90;;;;;;5124411;27;20486;-81
2023/07/28 03:58:31;;;;;;;1.40;0.90;;;14.50;99.90;;;;;;5124813;27;20826;-80
2023/07/28 04:00:58;;;;;;;1.57;0.90;;;14.50;99.90;;;;;;5120882;27;20465;-80
2023/07/28 04:03:26;;;;;;;1.10;1.00;;;14.60;99.90;;;;;;5129452;27;20445;-80
2023/07/28 04:05:53;;;;;;;0.90;0.80;;;14.50;99.90;;;;;;5121869;27;20546;-82
2023/07/28 04:08:20;;;;;;;1.23;1.13;;;14.40;99.90;;;;;;5135042;27;20482;-80
2023/07/28 04:10:47;;;;;;;0.90;0.70;;;14.50;99.90;;;;;;5150257;27;20769;-81
2023/07/28 04:13:14;;;;;;;1.23;0.77;;;14.40;99.90;;;;;;5128931;27;20520;-80
2023/07/28 04:15:41;;;;;;;2.27;1.00;;;14.60;99.90;;;;;;5139843;27;20902;-80
2023/07/28 04:18:08;;;;;;;1.00;0.90;;;14.50;99.90;;;;;;5121435;27;20579;-79
2023/07/28 04:20:36;;;;;;;1.73;0.90;;;14.60;99.90;;;;;;5129862;27;21699;-80
2023/07/28 04:23:03;;;;;;;2.80;1.00;;;14.80;99.90;;;;;;5129062;27;20488;-82
2023/07/28 04:25:30;;;;;;;1.67;0.90;;;14.90;99.90;;;;;;5128277;27;20993;-82
2023/07/28 04:27:57;;;;;;;0.80;0.80;;;14.80;99.90;;;;;;5127465;27;21221;-82
2023/07/28 04:30:24;;;;;;;1.53;1.00;;;14.80;99.90;;;;;;5125602;27;20497;-82
2023/07/28 04:32:51;;;;;;;2.03;1.10;;;14.80;99.90;;;;;;5126891;27;20507;-84
2023/07/28 04:35:18;;;;;;;1.73;1.23;;;15.00;99.90;;;;;;5126401;27;20531;-82
2023/07/28 04:37:46;;;;;;;1.10;0.70;;;15.10;99.90;;;;;;5125567;27;20502;-81
2023/07/28 04:40:13;;;;;;;1.03;0.93;;;15.20;99.90;;;;;;5125794;27;20498;-82
2023/07/28 04:42:40;;;;;;;0.80;0.70;;;15.40;99.90;;;;;;5125031;27;20491;-81
2023/07/28 04:45:08;;;;;;;3.17;1.10;;;15.50;99.90;;;;;;5127568;27;21116;-82
2023/07/28 04:47:35;;;;;;;2.00;0.90;;;15.50;99.90;;;;;;5125797;27;20477;-82
2023/07/28 04:50:02;;;;;;;0.97;0.87;;;15.60;99.90;;;;;;5123397;27;20939;-85
2023/07/28 04:52:29;;;;;;;4.77;0.90;;;15.50;99.90;;;;;;5123981;27;20469;-82
2023/07/28 04:54:58;;;;;;;1.37;0.83;;;15.60;99.90;;;;;;5127785;27;20513;-80
2023/07/28 04:57:24;;;;;;;2.10;0.70;;;15.60;99.90;;;;;;5125802;27;20500;-81
2023/07/28 04:59:51;;;;;;;1.47;0.83;;;15.80;99.90;;;;;;5124132;27;20482;-81
2023/07/28 05:02:19;;;;;;;1.73;1.20;;;15.90;99.90;;;;;;5123141;27;20544;-81
2023/07/28 05:04:46;;;;;;;1.70;0.83;;;15.90;99.90;;;;;;5124598;27;20909;-82
2023/07/28 05:07:13;;;;;;;1.27;0.70;;;16.10;99.90;;;;;;5120912;27;20468;-81
2023/07/28 05:09:40;;;;;;;1.90;0.93;;;16.30;99.90;;;;;;5125803;27;20458;-81
2023/07/28 05:12:09;;;;;;;1.50;0.97;;;16.50;99.90;;;;;;5125614;27;21083;-82
2023/07/28 05:14:36;;;;;;;1.33;0.80;;;16.50;99.90;;;;;;5125039;27;20453;-81
2023/07/28 05:17:03;;;;;;;1.37;0.80;;;16.70;99.90;;;;;;5119449;27;20487;-82
2023/07/28 05:19:30;;;;;;;1.23;0.87;;;16.80;99.90;;;;;;5125729;27;20447;-81
2023/07/28 05:21:57;;;;;;;1.10;0.70;;;17.00;99.90;;;;;;5125568;27;20498;-81
2023/07/28 05:24:24;;;;;;;2.30;2.07;;;17.00;99.90;;;;;;5127743;27;20616;-81
2023/07/28 05:26:51;;;;;;;1.97;0.80;;;17.20;99.90;;;;;;5128105;27;20449;-81
2023/07/28 05:29:19;;;;;;;2.03;1.10;;;17.40;99.90;;;;;;5126016;27;20472;-82
2023/07/28 05:31:46;;;;;;;0.83;0.80;;;17.40;99.90;;;;;;5128181;27;21076;-82
2023/07/28 05:34:13;;;;;;;5.20;1.17;;;17.40;99.90;;;;;;5126907;27;20514;-81
2023/07/28 05:36:41;;;;;;;1.83;1.00;;;17.50;99.90;;;;;;5137163;27;20554;-81
2023/07/28 05:39:08;;;;;;;1.50;0.90;;;17.60;99.90;;;;;;5141562;27;21111;-81
2023/07/28 05:41:35;;;;;;;0.80;0.70;;;17.80;99.90;;;;;;5140164;27;20460;-80
2023/07/28 05:44:02;;;;;;;1.77;1.27;;;17.90;99.90;;;;;;5136125;27;20441;-81
2023/07/28 05:46:31;;;;;;;2.23;1.00;;;18.10;99.90;;;;;;5124774;27;20461;-82
2023/07/28 05:48:58;;;;;;;1.33;0.80;;;18.20;99.90;;;;;;5127630;27;20490;-82
2023/07/28 05:51:25;;;;;;;1.27;1.03;;;18.30;99.90;;;;;;5119089;27;20548;-82
2023/07/28 05:53:52;;;;;;;1.40;1.30;;;18.50;99.90;;;;;;5123317;27;20498;-81
2023/07/28 05:56:19;;;;;;;1.83;1.27;;;18.70;99.90;;;;;;5125532;27;20640;-82
2023/07/28 05:58:47;;;;;;;2.10;0.80;;;18.80;99.90;;;;;;5122386;27;20505;-82
2023/07/28 06:01:13;;;;;;;8.07;6.03;;;19.00;99.90;;;;;;5125098;27;20512;-81
2023/07/28 06:03:42;;;;;;;1.33;0.93;;;19.10;99.90;;;;;;5123244;27;20465;-82
2023/07/28 06:06:09;;;;;;;0.93;0.83;;;19.30;99.90;;;;;;5124138;27;20481;-82
2023/07/28 06:08:36;;;;;;;1.00;0.80;;;19.40;99.90;;;;;;5122836;27;20450;-82
2023/07/28 06:11:04;;;;;;;1.40;0.80;;;19.50;99.90;;;;;;5123134;27;20460;-82
2023/07/28 06:13:31;;;;;;;1.93;0.80;;;19.60;99.90;;;;;;5121731;27;21094;-82
2023/07/28 06:16:00;;;;;;;1.40;0.93;;;19.60;99.90;;;;;;5122195;27;20492;-82
2023/07/28 06:18:28;;;;;;;1.50;1.33;;;19.60;99.90;;;;;;5124116;27;20465;-81
2023/07/28 06:20:56;;;;;;;1.17;1.00;;;19.40;99.90;;;;;;5125187;27;20907;-82
2023/07/28 06:23:23;;;;;;;1.57;0.90;;;19.10;99.90;;;;;;5112987;27;20462;-81
2023/07/28 06:25:50;;;;;;;2.10;1.00;;;19.10;99.90;;;;;;5127587;27;20502;-80
2023/07/28 06:28:18;;;;;;;5.27;0.90;;;19.30;99.90;;;;;;5125345;27;20482;-80
2023/07/28 06:30:45;;;;;;;4.90;1.50;;;19.30;99.90;;;;;;5124349;27;20514;-81
2023/07/28 06:33:12;;;;;;;2.30;1.23;;;19.70;99.90;;;;;;5125932;27;20446;-82
2023/07/28 06:35:39;;;;;;;3.00;1.30;;;20.00;99.90;;;;;;5122738;27;20499;-80
2023/07/28 06:38:07;;;;;;;1.47;1.27;;;20.00;99.90;;;;;;5126003;27;20455;-81
2023/07/28 06:40:34;;;;;;;2.13;1.10;;;20.40;99.90;;;;;;5119132;27;20490;-81
2023/07/28 06:43:01;;;;;;;4.03;1.30;;;20.40;99.90;;;;;;5117167;27;20478;-80
2023/07/28 06:45:29;;;;;;;1.70;1.23;;;20.60;99.90;;;;;;5120543;27;20481;-83
2023/07/28 06:47:56;;;;;;;1.87;1.10;;;20.90;99.90;;;;;;5119874;27;20453;-81
2023/07/28 06:50:23;;;;;;;1.40;1.07;;;20.90;99.90;;;;;;5122945;28;20476;-81
2023/07/28 06:52:49;;;;;;;1.60;0.97;;;20.50;99.90;;;;;;5126969;27;20465;-81
2023/07/28 06:55:18;;;;;;;1.93;1.10;;;20.50;99.90;;;;;;5129201;27;20886;-80
2023/07/28 06:57:45;;;;;;;1.60;1.23;;;20.50;99.90;;;;;;5131721;27;20445;-80
2023/07/28 07:00:14;;;;;;;0.90;0.80;;;20.50;99.90;;;;;;5125405;27;20522;-81
2023/07/28 07:02:41;;;;;;;2.50;0.97;;;20.50;99.90;;;;;;5132038;27;20453;-82
2023/07/28 07:05:08;;;;;;;3.03;1.73;;;20.60;99.90;;;;;;5135894;27;20860;-81
2023/07/28 07:07:36;;;;;;;1.33;1.20;;;20.70;99.90;;;;;;5142268;27;20426;-80
2023/07/28 07:10:04;;;;;;;1.70;1.60;;;20.80;99.90;;;;;;5144723;27;20508;-81
2023/07/28 07:12:32;;;;;;;3.73;2.23;;;20.90;99.90;;;;;;5142926;27;20501;-82
2023/07/28 07:14:59;;;;;;;2.10;1.40;;;21.00;99.90;;;;;;5118597;27;20939;-82
2023/07/28 07:17:26;;;;;;;2.20;1.27;;;21.30;99.90;;;;;;5129061;27;20517;-81
2023/07/28 07:19:53;;;;;;;1.17;1.00;;;21.30;99.90;;;;;;5128406;27;20450;-80
2023/07/28 07:22:20;;;;;;;1.00;0.83;;;21.60;99.90;;;;;;5131870;27;20481;-81
2023/07/28 07:24:47;;;;;;;0.87;0.83;;;21.30;99.90;;;;;;5130083;27;20525;-81
2023/07/28 07:27:14;;;;;;;1.20;1.10;;;21.70;99.90;;;;;;5131137;27;20475;-81
2023/07/28 07:29:42;;;;;;;2.07;1.40;;;21.80;99.90;;;;;;5130790;27;20992;-80
2023/07/28 07:32:11;;;;;;;1.87;1.33;;;21.80;99.90;;;;;;5121270;27;20486;-80
2023/07/28 07:34:38;;;;;;;1.10;1.00;;;21.70;99.90;;;;;;5130749;27;20454;-80
2023/07/28 07:37:05;;;;;;;0.90;0.80;;;21.60;99.90;;;;;;5125743;27;20984;-79
2023/07/28 07:39:33;;;;;;;1.30;1.07;;;21.80;99.90;;;;;;5126484;27;21210;-81
2023/07/28 07:42:00;;;;;;;2.70;2.13;;;21.90;99.90;;;;;;5125517;27;20441;-80
2023/07/28 07:44:28;;;;;;;2.10;2.00;;;21.90;99.90;;;;;;5123604;27;20534;-80
2023/07/28 07:46:57;;;;;;;1.83;1.40;;;22.50;99.90;;;;;;5126481;27;20493;-81
2023/07/28 07:49:24;;;;;;;1.93;1.23;;;22.30;99.90;;;;;;5126996;27;20968;-81
2023/07/28 07:51:51;;;;;;;1.30;1.20;;;22.40;99.90;;;;;;5123831;27;20450;-81
2023/07/28 07:54:18;;;;;;;3.10;1.33;;;22.30;99.90;;;;;;5126829;27;20463;-82
2023/07/28 07:56:46;;;;;;;1.90;1.60;;;22.40;99.90;;;;;;5120561;27;20483;-82
2023/07/28 07:59:13;;;;;;;1.10;0.80;;;22.30;99.90;;;;;;5125871;27;20451;-80
2023/07/28 08:01:40;;;;;;;2.70;1.83;;;22.60;99.90;;;;;;5126300;27;20985;-81
2023/07/28 08:04:09;;;;;;;4.00;1.13;;;22.90;99.90;;;;;;5120738;27;20466;-81
2023/07/28 08:06:37;;;;;;;1.67;1.33;;;23.30;99.90;;;;;;5122055;27;20548;-80
2023/07/28 08:09:04;;;;;;;5.17;1.37;;;23.50;99.90;;;;;;5125878;27;20531;-81
2023/07/28 08:11:30;;;;;;;1.10;0.90;;;23.10;99.90;;;;;;5121273;27;21020;-81
2023/07/28 08:13:57;;;;;;;1.20;0.80;;;22.40;99.90;;;;;;5126986;27;20447;-79
2023/07/28 08:16:25;;;;;;;1.63;0.70;;;22.10;99.90;;;;;;5121340;27;20479;-82
2023/07/28 08:18:52;;;;;;;1.93;0.93;;;21.90;99.90;;;;;;5127145;27;20470;-80
2023/07/28 08:21:20;;;;;;;0.70;0.67;;;21.70;99.90;;;;;;5124453;27;20481;-80
2023/07/28 08:23:47;;;;;;;1.20;0.90;;;21.70;99.90;;;;;;5130960;27;20467;-82
2023/07/28 08:26:14;;;;;;;1.77;0.63;;;21.70;99.90;;;;;;5131129;27;20492;-81
2023/07/28 08:28:41;;;;;;;1.47;0.90;;;21.60;99.90;;;;;;5130464;27;21017;-80
2023/07/28 08:31:08;;;;;;;1.77;0.80;;;21.50;99.90;;;;;;5126579;27;20430;-81
2023/07/28 08:33:35;;;;;;;1.10;1.00;;;21.50;99.90;;;;;;5134901;27;20464;-80
2023/07/28 08:36:02;;;;;;;1.53;0.80;;;21.60;99.90;;;;;;5135934;27;20489;-81
2023/07/28 08:38:31;;;;;;;0.83;0.60;;;21.90;99.90;;;;;;5138566;27;20458;-79
2023/07/28 08:40:59;;;;;;;1.07;0.70;;;22.00;99.90;;;;;;5129765;27;20856;-81
2023/07/28 08:43:26;;;;;;;0.93;0.83;;;22.00;99.90;;;;;;5123871;27;20438;-81
2023/07/28 08:45:55;;;;;;;1.10;0.80;;;21.60;99.90;;;;;;5127238;27;20982;-80
2023/07/28 08:48:22;;;;;;;0.80;0.70;;;21.50;99.90;;;;;;5124354;27;20457;-80
2023/07/28 08:50:49;;;;;;;1.10;0.70;;;21.40;99.90;;;;;;5121447;27;20515;-80
2023/07/28 08:53:16;;;;;;;0.90;0.70;;;21.30;99.90;;;;;;5128979;27;20489;-80
2023/07/28 08:55:45;;;;;;;2.40;0.80;;;21.00;99.90;;;;;;5122700;27;20985;-82
2023/07/28 08:58:16;;;;;;;1.00;0.90;;;20.90;99.90;;;;;;5121645;27;20488;-82
2023/07/28 09:00:43;;;;;;;6.97;0.60;;;20.90;99.90;;;;;;5120971;27;21013;-79
2023/07/28 09:03:11;;;;;;;0.87;0.87;;;21.00;99.90;;;;;;5123191;27;20541;-82
2023/07/28 09:05:40;;;;;;;2.17;2.07;;;21.30;99.90;;;;;;5123618;27;20473;-81
2023/07/28 09:08:07;;;;;;;7.87;1.20;;;21.50;99.90;;;;;;5120859;27;20827;-81
2023/07/28 09:10:42;;;;;;;0.73;0.70;;;21.60;99.90;;;;;;5118169;27;20456;-80
2023/07/28 09:13:13;;;;;;;0.90;0.80;;;21.60;99.90;;;;;;5117970;27;20444;-81
2023/07/28 09:15:40;;;;;;;1.20;1.10;;;21.60;99.90;;;;;;5122994;27;20969;-82
2023/07/28 09:18:09;;;;;;;1.07;0.70;;;21.70;99.90;;;;;;5123996;27;20481;-80
2023/07/28 09:20:37;;;;;;;0.80;0.80;;;21.70;99.90;;;;;;5119820;27;20446;-81
2023/07/28 09:23:05;;;;;;;0.70;0.60;;;21.80;99.90;;;;;;5122971;27;20880;-80
2023/07/28 09:25:33;;;;;;;1.53;1.23;;;21.70;99.90;;;;;;5121760;27;20791;-81
2023/07/28 09:28:00;;;;;;;2.20;1.13;;;21.80;99.90;;;;;;5126568;27;21062;-81
2023/07/28 09:30:45;;;;;;;0.90;0.77;;;21.80;99.90;;;;;;5120708;27;20555;-80
2023/07/28 09:33:12;;;;;;;1.27;0.90;;;21.40;99.90;;;;;;5127004;27;20445;-80
2023/07/28 09:35:49;;;;;;;1.33;0.70;;;21.20;99.90;;;;;;5124754;27;20848;-81
2023/07/28 09:38:16;;;;;;;3.23;1.13;;;21.20;99.90;;;;;;5119945;27;20504;-81
2023/07/28 09:40:44;;;;;;;2.87;1.00;;;21.10;99.90;;;;;;5117180;27;21395;-80
2023/07/28 09:43:13;;;;;;;0.80;0.80;;;21.40;99.90;;;;;;5122378;27;20473;-80
2023/07/28 09:45:43;;;;;;;1.80;0.90;;;22.20;99.90;;;;;;5122463;27;20469;-80
2023/07/28 09:48:12;;;;;;;0.80;0.80;;;22.10;99.90;;;;;;5120763;27;20980;-80
2023/07/28 09:50:41;;;;;;;0.73;0.60;;;21.90;99.90;;;;;;5120127;27;20473;-80
2023/07/28 09:53:11;;;;;;;2.83;1.00;;;22.30;99.90;;;;;;5124899;27;20481;-80
2023/07/28 09:55:42;;;;;;;1.57;0.70;;;22.70;99.90;;;;;;5117975;27;21229;-81
2023/07/28 09:58:11;;;;;;;1.20;1.10;;;23.10;99.90;;;;;;5121470;27;20490;-80
2023/07/28 10:00:38;;;;;;;0.80;0.80;;;23.70;99.90;;;;;;5131848;27;20454;-80
2023/07/28 10:03:07;;;;;;;1.20;0.70;;;23.90;99.90;;;;;;5134616;27;20444;-80
2023/07/28 10:05:35;;;;;;;1.50;0.70;;;24.40;99.90;;;;;;5133722;27;21005;-81
2023/07/28 10:08:04;;;;;;;1.43;1.20;;;24.60;99.90;;;;;;5128223;27;20928;-80
2023/07/28 10:10:32;;;;;;;1.57;1.10;;;24.70;99.90;;;;;;5120983;27;20444;-80
2023/07/28 10:13:00;;;;;;;1.40;1.30;;;25.00;99.90;;;;;;5123946;27;20498;-80
2023/07/28 10:15:30;;;;;;;1.50;1.37;;;24.60;99.90;;;;;;5123062;27;20775;-81
2023/07/28 10:17:59;;;;;;;1.93;0.80;;;24.40;99.90;;;;;;5124181;27;20531;-81
2023/07/28 10:20:32;;;;;;;2.10;1.47;;;24.30;99.90;;;;;;5127149;27;20571;-81
2023/07/28 10:23:07;;;;;;;1.13;1.03;;;24.70;99.90;;;;;;5121501;27;20493;-80
2023/07/28 10:25:36;;;;;;;0.83;0.80;;;25.10;99.90;;;;;;5124138;27;20478;-80
2023/07/28 10:28:03;;;;;;;1.13;0.83;;;25.10;99.90;;;;;;5122586;27;20503;-81
2023/07/28 10:30:38;;;;;;;1.30;0.90;;;25.30;99.90;;;;;;5118973;27;20478;-81
2023/07/28 10:33:05;;;;;;;2.30;1.67;;;25.20;99.90;;;;;;5122951;28;20446;-81
2023/07/28 10:35:34;;;;;;;0.90;0.80;;;25.20;99.90;;;;;;5125162;28;20541;-80
2023/07/28 10:38:32;;;;;;;1.43;1.10;;;25.30;99.90;;;;;;5120518;27;20583;-80
2023/07/28 10:41:10;;;;;;;1.10;0.70;;;25.40;99.90;;;;;;5123218;28;20858;-81
2023/07/28 10:43:37;;;;;;;1.53;1.37;;;25.60;99.90;;;;;;5119923;28;20468;-81
2023/07/28 10:46:07;;;;;;;1.43;0.97;;;25.90;99.90;;;;;;5119478;27;20469;-81
2023/07/28 10:48:35;;;;;;;1.27;0.80;;;26.00;99.90;;;;;;5118909;28;20471;-80
2023/07/28 10:51:03;;;;;;;1.43;0.70;;;26.00;99.90;;;;;;5121736;28;20462;-80
2023/07/28 10:53:32;;;;;;;1.80;1.30;;;26.00;99.90;;;;;;5118014;28;20441;-81
2023/07/28 10:55:59;;;;;;;0.93;0.70;;;26.20;99.90;;;;;;5121353;28;20529;-81
2023/07/28 10:58:26;;;;;;;1.00;0.77;;;26.50;98.90;;;;;;5126484;27;20542;-80
2023/07/28 11:00:53;;;;;;;3.70;1.17;;;26.80;98.90;;;;;;5124940;27;20473;-81
2023/07/28 11:03:21;;;;;;;1.00;0.80;;;26.90;96.70;;;;;;5123301;27;20491;-81
2023/07/28 11:05:50;;;;;;;1.13;1.03;;;26.60;97.70;;;;;;5126115;28;20481;-80
2023/07/28 11:08:19;;;;;;;2.27;0.90;;;26.40;98.60;;;;;;5122871;27;20445;-80
2023/07/28 11:10:46;;;;;;;0.83;0.67;;;26.90;98.50;;;;;;5122567;28;20461;-80
2023/07/28 11:13:14;;;;;;;0.90;0.90;;;27.10;97.80;;;;;;5120594;28;20472;-80
2023/07/28 11:15:41;;;;;;;0.97;0.87;;;27.00;96.40;;;;;;5120395;28;21017;-81
2023/07/28 11:18:09;;;;;;;0.87;0.87;;;26.60;95.50;;;;;;5119591;28;20486;-80
2023/07/28 11:20:36;;;;;;;1.53;1.27;;;26.50;97.20;;;;;;5123514;27;20916;-80
2023/07/28 11:23:05;;;;;;;1.30;0.80;;;26.60;95.90;;;;;;5121611;27;20456;-80
2023/07/28 11:25:35;;;;;;;1.30;0.90;;;26.70;95.30;;;;;;5123177;28;20439;-80
2023/07/28 11:28:05;;;;;;;3.47;0.80;;;27.20;94.80;;;;;;5130890;27;20507;-80
2023/07/28 11:30:32;;;;;;;0.70;0.70;;;27.40;93.60;;;;;;5131879;28;20523;-80
2023/07/28 11:32:59;;;;;;;1.40;1.13;;;27.10;94.00;;;;;;5137477;27;20443;-80
2023/07/28 11:35:27;;;;;;;1.27;1.17;;;27.00;93.50;;;;;;5128169;27;20545;-81
2023/07/28 11:37:55;;;;;;;3.87;1.30;;;27.40;93.50;;;;;;5126906;27;20886;-81
2023/07/28 11:40:25;;;;;;;0.90;0.90;;;27.70;91.10;;;;;;5129371;27;20515;-82
2023/07/28 11:42:56;;;;;;;1.20;1.10;;;27.60;92.30;;;;;;5127992;27;20456;-81
2023/07/28 11:45:23;;;;;;;1.97;1.00;;;27.20;90.90;;;;;;5124145;27;20492;-81
2023/07/28 11:47:57;;;;;;;1.80;0.80;;;26.60;91.80;;;;;;5129008;27;20964;-81
2023/07/28 11:50:25;;;;;;;1.33;0.70;;;26.40;92.10;;;;;;5128671;27;20459;-81
2023/07/28 11:52:52;;;;;;;1.13;0.90;;;26.50;91.70;;;;;;5122731;27;20788;-81
2023/07/28 11:55:22;;;;;;;0.80;0.70;;;26.60;90.90;;;;;;5128295;27;20461;-81
2023/07/28 11:57:49;;;;;;;1.80;1.13;;;26.70;91.40;;;;;;5123675;27;21051;-81
2023/07/28 12:00:18;;;;;;;1.67;0.90;;;27.10;90.90;;;;;;5123254;27;20443;-81
2023/07/28 12:02:46;;;;;;;0.90;0.77;;;27.00;90.40;;;;;;5129062;27;20453;-81
2023/07/28 12:05:14;;;;;;;0.80;0.60;;;26.80;90.80;;;;;;5125770;27;20443;-82
2023/07/28 12:07:41;;;;;;;1.17;0.90;;;26.80;89.30;;;;;;5125044;27;20437;-81
2023/07/28 12:10:13;;;;;;;0.73;0.63;;;26.60;90.00;;;;;;5125826;27;20477;-81
2023/07/28 12:12:44;;;;;;;2.17;1.00;;;26.50;90.30;;;;;;5124873;27;20492;-79
2023/07/28 12:15:26;;;;;;;1.57;1.03;;;26.60;91.10;;;;;;5127210;27;20466;-80
2023/07/28 12:18:09;;;;;;;1.03;0.93;;;26.50;91.00;;;;;;5127396;27;20503;-79
2023/07/28 12:20:37;;;;;;;0.83;0.80;;;26.40;90.60;;;;;;5128224;27;20904;-79
2023/07/28 12:23:05;;;;;;;0.80;0.80;;;26.20;90.90;;;;;;5122194;27;20462;-80
2023/07/28 12:25:32;;;;;;;1.30;0.80;;;26.40;92.00;;;;;;5124866;27;20439;-80
2023/07/28 12:27:59;;;;;;;2.77;0.80;;;26.30;92.50;;;;;;5124019;27;20470;-80
2023/07/28 12:30:27;;;;;;;1.00;0.70;;;26.00;92.20;;;;;;5119284;27;20939;-80
2023/07/28 12:32:55;;;;;;;1.93;1.57;;;26.00;91.70;;;;;;5122688;27;20563;-80
2023/07/28 12:35:23;;;;;;;2.20;2.00;;;26.10;92.40;;;;;;5128175;27;20475;-79
2023/07/28 12:37:51;;;;;;;2.10;0.80;;;26.00;91.10;;;;;;5119386;27;20482;-80
2023/07/28 12:40:18;;;;;;;1.63;1.17;;;26.10;92.70;;;;;;5126531;27;20446;-80
2023/07/28 12:42:46;;;;;;;1.53;0.90;;;26.20;91.20;;;;;;5124259;27;20465;-80
2023/07/28 12:45:12;;;;;;;1.03;0.90;;;26.00;91.60;;;;;;5121133;27;20460;-81
2023/07/28 12:47:41;;;;;;;1.03;0.93;;;25.90;92.40;;;;;;5120752;27;20462;-80
2023/07/28 12:50:09;;;;;;;0.87;0.87;;;25.70;92.60;;;;;;5124666;27;20492;-80
2023/07/28 12:52:37;;;;;;;1.23;1.03;;;25.60;92.20;;;;;;5120635;27;20501;-80